CDT,Max TemperatureF,Mean TemperatureF,Min TemperatureF,Max Dew PointF,MeanDew PointF,Min DewpointF,Max Humidity, Mean Humidity, Min Humidity, Max Sea Level PressureIn, Mean Sea Level PressureIn, Min Sea Level PressureIn, Max VisibilityMiles, Mean VisibilityMiles, Min VisibilityMiles, Max Wind SpeedMPH, Mean Wind SpeedMPH, Max Gust SpeedMPH,PrecipitationIn, CloudCover, Events, WindDirDegrees
2013-3-1,62,52,42,41,36,28,81,58,34,30.18,30.13,30.06,10,10,10,21,7,25,0.00,,,281
2013-3-2,55,45,35,37,33,30,100,66,41,30.27,30.19,30.12,10,10,10,16,6,28,0.00,,,334
2013-3-3,53,42,30,39,33,30,100,72,44,30.30,30.24,30.16,10,10,10,12,4,20,0.06,,,270
2013-3-4,69,53,37,59,50,36,100,78,56,30.16,30.07,29.96,10,10,7,18,8,26,0.02,,,159
2013-3-5,74,65,55,64,57,40,94,74,52,30.18,30.05,29.96,10,10,7,24,10,29,0.00,,,229
2013-3-6,65,56,46,43,35,28,81,50,25,30.33,30.26,30.19,10,10,10,18,12,24,0.00,,,328
2013-3-7,63,52,41,45,42,38,95,68,47,30.35,30.28,30.23,10,10,10,13,7,16,0.00,,,30
2013-3-8,68,54,40,53,46,40,99,75,43,30.30,30.24,30.17,10,10,2,10,3,,0.00,,,63
2013-3-9,72,62,52,63,59,51,97,82,66,30.19,30.09,29.94,10,10,7,15,6,22,0.00,,,80
2013-3-10,79,72,66,68,66,63,95,82,65,29.99,29.92,29.89,10,9,7,25,11,33,0.00,,,126
2013-3-11,70,59,48,68,50,40,96,79,49,30.04,29.94,29.84,10,9,2,20,10,25,0.18,,Rain,287
2013-3-12,67,54,43,49,43,37,96,70,34,30.23,30.13,30.04,10,10,10,13,6,16,0.00,,,306
2013-3-13,69,58,47,50,42,33,96,60,27,30.38,30.31,30.22,10,10,2,17,7,23,0.00,,,333
2013-3-14,64,56,46,44,37,27,86,54,24,30.45,30.38,30.33,10,10,10,15,8,20,0.00,,,27
2013-3-15,73,58,42,56,46,39,96,71,30,30.33,30.25,30.17,10,10,2,14,2,17,0.00,,,180
2013-3-16,76,61,47,62,55,47,100,79,53,30.17,30.06,29.99,10,8,0,13,5,21,0.00,,Fog,168
2013-3-17,77,68,60,67,64,58,96,85,61,29.99,29.92,29.86,10,10,7,20,7,32,0.00,,Rain-Thunderstorm,132
2013-3-18,82,70,59,71,66,59,99,90,65,29.91,29.85,29.79,10,7,0,14,8,22,0.00,,Fog,180
2013-3-19,75,66,57,63,61,57,100,83,66,30.03,29.97,29.89,10,9,0,16,7,21,0.00,,Fog,41
2013-3-20,71,64,58,64,49,38,96,60,34,30.16,30.04,29.96,10,10,7,20,10,25,0.00,,Rain,360
2013-3-21,67,56,45,56,45,38,85,59,40,30.06,29.98,29.86,10,10,10,13,7,22,0.00,,,62
2013-3-22,77,68,61,70,65,57,98,89,79,29.87,29.82,29.78,10,9,5,14,7,20,0.04,,Rain,106
2013-3-23,78,69,60,73,67,61,100,95,83,29.82,29.71,29.60,10,4,0,17,6,25,0.00,,Fog-Rain,125
2013-3-24,77,64,50,67,54,28,100,67,27,30.00,29.77,29.62,10,8,0,22,11,29,0.00,,Fog,278
2013-3-25,63,51,39,36,31,24,80,49,22,30.26,30.15,30.01,10,10,7,21,13,26,0.00,,,306
2013-3-26,59,50,41,35,30,24,76,51,29,30.41,30.34,30.26,10,10,10,16,9,26,0.00,,,315
2013-3-27,62,52,42,43,37,31,91,60,35,30.45,30.37,30.30,10,10,5,9,6,,0.00,,,38
2013-3-28,67,52,37,52,44,36,95,73,35,30.38,30.31,30.27,10,10,10,12,3,17,0.00,,,82
2013-3-29,74,59,44,59,52,43,98,78,45,30.33,30.26,30.20,10,9,0,13,3,16,0.00,,Fog,87
2013-3-30,77,64,50,65,58,49,97,78,53,30.22,30.13,30.04,10,9,0,17,4,23,0.00,,Fog,160
2013-3-31,78,65,52,68,63,52,100,88,66,30.06,30.00,29.94,10,8,0,22,5,36,0.00,,Fog-Rain,183